createdAt,value
2023-02-16T00:00:54.066Z,3.78
2023-02-16T00:03:23.054Z,6.93
2023-02-16T00:05:51.284Z,2.97
2023-02-16T00:08:18.698Z,2.80
2023-02-16T00:11:07.068Z,5.47
2023-02-16T00:13:48.315Z,4.25
2023-02-16T00:16:20.724Z,17.23
2023-02-16T00:18:48.844Z,21.55
2023-02-16T00:21:16.685Z,11.38
2023-02-16T00:23:45.060Z,7.65
2023-02-16T00:26:18.653Z,13.57
2023-02-16T00:28:50.548Z,10.48
2023-02-16T00:31:23.980Z,6.68
2023-02-16T00:33:51.101Z,5.78
2023-02-16T00:36:21.271Z,5.93
2023-02-16T00:38:48.559Z,5.40
2023-02-16T00:41:37.362Z,10.10
2023-02-16T00:44:20.667Z,11.23
2023-02-16T00:46:48.620Z,14.60
2023-02-16T00:49:18.834Z,6.68
2023-02-16T00:51:47.916Z,7.82
2023-02-16T00:54:15.585Z,2.55
2023-02-16T00:56:43.737Z,4.53
2023-02-16T00:59:22.665Z,3.05
2023-02-16T01:01:50.329Z,2.58
2023-02-16T01:04:22.912Z,1.50
2023-02-16T01:09:54.578Z,2.67
2023-02-16T01:12:22.189Z,2.20
2023-02-16T01:14:53.469Z,1.73
2023-02-16T01:17:24.801Z,2.40
2023-02-16T01:19:55.177Z,1.58
2023-02-16T01:22:22.564Z,1.92
2023-02-16T01:24:50.017Z,2.03
2023-02-16T01:27:18.305Z,4.88
2023-02-16T01:29:46.293Z,2.95
2023-02-16T01:32:14.895Z,2.53
2023-02-16T01:34:42.571Z,3.38
2023-02-16T01:37:16.085Z,1.95
2023-02-16T01:39:44.875Z,1.85
2023-02-16T01:42:34.882Z,2.72
2023-02-16T01:45:09.370Z,3.50
2023-02-16T01:47:44.928Z,3.33
2023-02-16T01:50:17.253Z,3.33
2023-02-16T01:52:56.993Z,3.47
2023-02-16T01:55:43.180Z,2.83
2023-02-16T01:58:36.072Z,4.78
2023-02-16T02:01:05.394Z,2.55
2023-02-16T02:03:55.252Z,2.65
2023-02-16T02:06:34.984Z,4.35
2023-02-16T02:09:02.378Z,5.60
2023-02-16T02:11:56.760Z,4.28
2023-02-16T02:14:28.233Z,6.20
2023-02-16T02:17:03.206Z,4.22
2023-02-16T02:19:56.828Z,2.53
2023-02-16T02:22:46.606Z,3.10
2023-02-16T02:25:35.992Z,2.22
2023-02-16T02:28:08.908Z,2.40
2023-02-16T02:30:42.014Z,4.53
2023-02-16T02:33:12.206Z,2.25
2023-02-16T02:35:59.067Z,2.00
2023-02-16T02:38:44.473Z,6.07
2023-02-16T02:42:07.359Z,5.45
2023-02-16T02:44:46.740Z,4.15
2023-02-16T02:47:14.259Z,3.78
2023-02-16T02:49:54.267Z,3.20
2023-02-16T02:52:22.928Z,3.92
2023-02-16T02:55:09.301Z,3.15
2023-02-16T02:58:03.668Z,2.33
2023-02-16T03:00:41.806Z,3.38
2023-02-16T03:03:12.428Z,3.85
2023-02-16T03:05:44.315Z,3.58
2023-02-16T03:08:15.676Z,3.33
2023-02-16T03:11:08.829Z,3.22
2023-02-16T03:16:13.293Z,4.13
2023-02-16T03:19:02.686Z,3.20
2023-02-16T03:21:48.829Z,8.57
2023-02-16T03:24:40.738Z,10.07
2023-02-16T03:27:28.101Z,7.00
2023-02-16T03:29:57.319Z,2.15
2023-02-16T03:32:24.830Z,9.38
2023-02-16T03:34:52.336Z,4.30
2023-02-16T03:37:19.545Z,4.22
2023-02-16T03:40:05.575Z,4.25
2023-02-16T03:42:32.850Z,4.18
2023-02-16T03:45:00.329Z,4.95
2023-02-16T03:47:27.573Z,4.15
2023-02-16T03:49:54.989Z,4.18
2023-02-16T03:52:22.424Z,6.70
2023-02-16T03:54:49.774Z,5.82
2023-02-16T03:57:17.555Z,3.78
2023-02-16T03:59:44.693Z,4.25
2023-02-16T04:02:12.182Z,4.32
2023-02-16T04:04:39.884Z,2.33
2023-02-16T04:07:07.339Z,4.80
2023-02-16T04:09:34.696Z,3.53
2023-02-16T04:12:20.624Z,6.00
2023-02-16T04:14:48.176Z,4.10
2023-02-16T04:17:15.264Z,4.22
2023-02-16T04:19:42.575Z,6.00
2023-02-16T04:22:09.819Z,2.80
2023-02-16T04:24:36.994Z,1.92
2023-02-16T04:27:07.736Z,2.90
2023-02-16T04:29:35.381Z,2.45
2023-02-16T04:32:02.583Z,3.65
2023-02-16T04:34:30.131Z,4.03
2023-02-16T04:36:57.244Z,4.20
2023-02-16T04:39:24.578Z,2.88
2023-02-16T04:41:52.097Z,2.80
2023-02-16T04:44:19.530Z,3.47
2023-02-16T04:46:46.735Z,2.28
2023-02-16T04:49:13.995Z,3.15
2023-02-16T04:51:41.191Z,4.57
2023-02-16T04:54:08.609Z,4.00
2023-02-16T04:56:35.799Z,4.78
2023-02-16T04:59:03.852Z,4.20
2023-02-16T05:01:31.501Z,3.15
2023-02-16T05:03:58.974Z,2.80
2023-02-16T05:06:26.261Z,4.97
2023-02-16T05:08:53.614Z,2.53
2023-02-16T05:11:39.427Z,2.60
2023-02-16T05:14:25.636Z,4.25
2023-02-16T05:16:54.394Z,3.40
2023-02-16T05:19:21.766Z,3.50
2023-02-16T05:21:49.407Z,7.10
2023-02-16T05:24:17.123Z,3.63
2023-02-16T05:26:44.972Z,6.97
2023-02-16T05:29:13.157Z,5.45
2023-02-16T05:31:41.188Z,4.22
2023-02-16T05:34:09.069Z,5.70
2023-02-16T05:36:36.355Z,7.28
2023-02-16T05:39:05.083Z,4.90
2023-02-16T05:41:32.659Z,3.72
2023-02-16T05:44:03.610Z,3.35
2023-02-16T05:46:35.188Z,3.25
2023-02-16T05:49:04.296Z,3.75
2023-02-16T05:51:31.646Z,3.72
2023-02-16T05:53:59.570Z,7.38
2023-02-16T05:56:28.350Z,4.53
2023-02-16T05:58:56.008Z,4.38
2023-02-16T06:01:23.397Z,3.65
2023-02-16T06:03:51.080Z,2.80
2023-02-16T06:06:19.585Z,6.43
2023-02-16T06:08:47.753Z,7.30
2023-02-16T06:11:35.780Z,3.47
2023-02-16T06:14:08.536Z,3.78
2023-02-16T06:16:39.167Z,2.00
2023-02-16T06:19:07.704Z,3.90
2023-02-16T06:21:36.790Z,2.17
2023-02-16T06:24:05.597Z,1.33
2023-02-16T06:26:34.967Z,3.38
2023-02-16T06:29:03.221Z,2.38
2023-02-16T06:31:31.151Z,3.47
2023-02-16T06:33:59.552Z,2.35
2023-02-16T06:36:27.371Z,2.88
2023-02-16T06:38:55.114Z,3.20
2023-02-16T06:41:31.977Z,6.30
2023-02-16T06:44:01.547Z,7.78
2023-02-16T06:46:29.864Z,5.13
2023-02-16T06:48:57.802Z,4.10
2023-02-16T06:51:25.555Z,5.05
2023-02-16T06:53:53.072Z,4.13
2023-02-16T06:56:20.480Z,3.90
2023-02-16T06:58:47.948Z,5.35
2023-02-16T07:01:15.641Z,3.15
2023-02-16T07:03:43.156Z,3.25
2023-02-16T07:06:11.252Z,4.53
2023-02-16T07:08:38.828Z,3.28
2023-02-16T07:11:07.056Z,5.30
2023-02-16T07:13:38.137Z,3.83
2023-02-16T07:16:09.304Z,3.67
2023-02-16T07:18:37.747Z,3.70
2023-02-16T07:21:06.260Z,5.38
2023-02-16T07:23:35.154Z,4.22
2023-02-16T07:26:02.868Z,3.90
2023-02-16T07:28:30.688Z,3.08
2023-02-16T07:30:59.593Z,4.40
2023-02-16T07:33:27.616Z,2.65
2023-02-16T07:35:55.525Z,4.65
2023-02-16T07:38:22.892Z,3.85
2023-02-16T07:40:50.281Z,3.25
2023-02-16T07:43:19.162Z,3.88
2023-02-16T07:45:46.910Z,3.10
2023-02-16T07:48:14.317Z,4.90
2023-02-16T07:50:42.960Z,4.20
2023-02-16T07:53:12.962Z,6.50
2023-02-16T07:55:42.811Z,3.92
2023-02-16T07:58:11.449Z,3.03
2023-02-16T08:00:39.309Z,2.53
2023-02-16T08:03:07.382Z,2.00
2023-02-16T08:05:35.427Z,2.03
2023-02-16T08:08:03.298Z,3.08
2023-02-16T08:10:30.672Z,4.30
2023-02-16T08:12:58.169Z,3.28
2023-02-16T08:15:25.459Z,2.65
2023-02-16T08:17:53.230Z,2.85
2023-02-16T08:20:23.828Z,4.57
2023-02-16T08:22:55.887Z,3.20
2023-02-16T08:25:22.986Z,2.53
2023-02-16T08:27:50.708Z,4.63
2023-02-16T08:30:18.671Z,2.55
2023-02-16T08:32:46.751Z,2.63
2023-02-16T08:35:16.543Z,3.38
2023-02-16T08:37:45.611Z,4.88
2023-02-16T08:40:13.318Z,3.28
2023-02-16T08:42:40.886Z,5.43
2023-02-16T08:45:09.314Z,3.78
2023-02-16T08:47:37.142Z,5.18
2023-02-16T08:50:05.581Z,3.95
2023-02-16T08:52:33.157Z,3.72
2023-02-16T08:55:01.155Z,2.85
2023-02-16T08:57:28.729Z,5.63
2023-02-16T09:00:15.893Z,3.78
2023-02-16T09:02:43.742Z,4.80
2023-02-16T09:05:10.967Z,3.78
2023-02-16T09:07:39.324Z,1.83
2023-02-16T09:10:08.421Z,4.55
2023-02-16T09:12:37.415Z,3.95
2023-02-16T09:15:05.248Z,4.10
2023-02-16T09:17:33.527Z,6.22
2023-02-16T09:20:03.248Z,8.43
2023-02-16T09:22:31.004Z,4.93
2023-02-16T09:24:58.276Z,5.75
2023-02-16T09:27:27.249Z,4.38
2023-02-16T09:29:55.080Z,4.55
2023-02-16T09:32:23.299Z,5.38
2023-02-16T09:34:51.968Z,7.22
2023-02-16T09:37:19.184Z,3.55
2023-02-16T09:39:47.944Z,4.88
2023-02-16T09:42:19.921Z,4.47
2023-02-16T09:44:59.247Z,5.30
2023-02-16T09:47:31.502Z,3.42
2023-02-16T09:50:52.140Z,5.57
2023-02-16T09:53:36.817Z,3.40
2023-02-16T09:56:08.927Z,3.80
2023-02-16T09:59:13.087Z,8.17
2023-02-16T10:02:00.797Z,3.97
2023-02-16T10:04:44.239Z,7.05
2023-02-16T10:07:25.057Z,3.85
2023-02-16T10:09:56.814Z,3.05
2023-02-16T10:12:33.074Z,4.82
2023-02-16T10:15:10.311Z,4.80
2023-02-16T10:17:45.377Z,2.58
2023-02-16T10:20:43.635Z,4.40
2023-02-16T10:23:31.785Z,4.97
2023-02-16T10:26:19.031Z,4.25
2023-02-16T10:28:49.058Z,5.10
2023-02-16T10:31:45.105Z,7.57
2023-02-16T10:34:24.720Z,4.05
2023-02-16T10:37:19.775Z,4.55
2023-02-16T10:40:15.241Z,5.47
2023-02-16T10:42:47.322Z,4.85
2023-02-16T10:45:16.466Z,5.72
2023-02-16T10:47:48.124Z,6.30
2023-02-16T10:50:49.108Z,5.38
2023-02-16T10:53:22.027Z,6.72
2023-02-16T10:55:50.855Z,7.05
2023-02-16T10:58:27.506Z,7.30
2023-02-16T11:01:15.347Z,4.70
2023-02-16T11:03:53.598Z,6.60
2023-02-16T11:06:23.587Z,6.90
2023-02-16T11:08:58.172Z,4.68
2023-02-16T11:11:30.445Z,7.18
2023-02-16T11:14:06.378Z,7.30
2023-02-16T11:16:35.071Z,4.88
2023-02-16T11:19:23.074Z,5.82
2023-02-16T11:21:57.707Z,8.93
2023-02-16T11:24:34.376Z,10.13
2023-02-16T11:27:20.857Z,5.30
2023-02-16T11:29:51.624Z,5.13
2023-02-16T11:32:22.026Z,5.55
2023-02-16T11:34:52.704Z,7.07
2023-02-16T11:37:34.523Z,5.63
2023-02-16T11:40:21.541Z,5.68
2023-02-16T11:42:56.560Z,5.88
2023-02-16T11:45:33.209Z,6.38
2023-02-16T11:48:08.211Z,4.45
2023-02-16T11:50:39.008Z,6.50
2023-02-16T11:53:13.006Z,5.15
2023-02-16T11:55:44.855Z,3.15
2023-02-16T11:58:29.834Z,5.97
2023-02-16T12:01:10.619Z,4.63
2023-02-16T12:04:14.594Z,5.72
2023-02-16T12:07:01.102Z,5.13
2023-02-16T12:09:39.584Z,4.32
2023-02-16T12:12:32.504Z,4.25
2023-02-16T12:17:41.060Z,4.03
2023-02-16T12:20:33.526Z,4.32
2023-02-16T12:23:36.570Z,6.00
2023-02-16T12:26:20.485Z,4.10
2023-02-16T12:29:00.423Z,7.97
2023-02-16T12:31:38.074Z,3.63
2023-02-16T12:34:06.322Z,3.05
2023-02-16T12:36:47.986Z,2.58
2023-02-16T12:39:31.962Z,6.50
2023-02-16T12:42:18.519Z,2.95
2023-02-16T12:44:54.584Z,2.17
2023-02-16T12:47:30.228Z,2.45
2023-02-16T12:50:03.942Z,4.00
2023-02-16T12:52:40.640Z,3.47
2023-02-16T12:55:56.531Z,2.72
2023-02-16T12:58:31.304Z,5.68
2023-02-16T13:01:05.416Z,3.00
2023-02-16T13:03:40.962Z,3.28
2023-02-16T13:06:17.782Z,2.55
2023-02-16T13:09:21.095Z,1.90
2023-02-16T13:12:12.853Z,2.33
2023-02-16T13:14:44.886Z,2.65
2023-02-16T13:17:54.614Z,4.28
2023-02-16T13:20:23.725Z,2.70
2023-02-16T13:23:22.217Z,3.40
2023-02-16T13:25:58.983Z,1.85
2023-02-16T13:28:41.797Z,2.35
2023-02-16T13:31:54.189Z,1.52
2023-02-16T13:34:33.814Z,4.60
2023-02-16T13:37:25.248Z,2.17
2023-02-16T13:40:12.065Z,1.95
2023-02-16T13:43:04.294Z,3.58
2023-02-16T13:45:38.666Z,4.35
2023-02-16T13:48:29.899Z,4.03
2023-02-16T13:51:04.924Z,2.63
2023-02-16T13:53:51.120Z,4.88
2023-02-16T13:56:29.883Z,2.95
2023-02-16T13:59:20.746Z,2.28
2023-02-16T14:01:51.284Z,3.88
2023-02-16T14:04:27.722Z,5.70
2023-02-16T14:07:04.100Z,3.47
2023-02-16T14:09:43.198Z,2.97
2023-02-16T14:12:28.469Z,3.70
2023-02-16T14:15:01.259Z,3.58
2023-02-16T14:20:25.475Z,3.65
2023-02-16T14:22:57.777Z,5.00
2023-02-16T14:25:25.139Z,5.45
2023-02-16T14:27:57.622Z,2.60
2023-02-16T14:33:05.996Z,5.03
2023-02-16T14:35:37.828Z,5.38
2023-02-16T14:38:16.741Z,4.22
2023-02-16T14:40:55.750Z,4.85
2023-02-16T14:43:41.819Z,4.60
2023-02-16T14:46:12.718Z,6.15
2023-02-16T14:48:55.536Z,4.68
2023-02-16T14:51:41.174Z,4.00
2023-02-16T14:54:31.254Z,6.07
2023-02-16T14:57:27.432Z,4.68
2023-02-16T15:00:00.139Z,5.88
2023-02-16T15:02:39.336Z,4.07
2023-02-16T15:05:19.032Z,5.03
2023-02-16T15:07:51.593Z,5.10
2023-02-16T15:12:56.896Z,5.63
2023-02-16T15:15:36.925Z,8.80
2023-02-16T15:18:06.852Z,6.90
2023-02-16T15:20:39.202Z,8.55
2023-02-16T15:23:30.225Z,8.18
2023-02-16T15:26:00.685Z,7.82
2023-02-16T15:28:36.226Z,9.23
2023-02-16T15:31:07.047Z,6.28
2023-02-16T15:33:44.760Z,5.55
2023-02-16T15:36:14.470Z,6.63
2023-02-16T15:38:54.921Z,9.88
2023-02-16T15:41:38.009Z,9.07
2023-02-16T15:44:07.599Z,5.53
2023-02-16T15:46:42.321Z,7.47
2023-02-16T15:49:30.618Z,8.35
2023-02-16T15:51:59.413Z,8.48
2023-02-16T15:54:29.026Z,6.20
2023-02-16T15:56:58.742Z,5.93
2023-02-16T15:59:41.164Z,7.15
2023-02-16T16:02:28.632Z,3.78
2023-02-16T16:04:59.227Z,6.90
2023-02-16T16:07:41.972Z,5.85
2023-02-16T16:10:37.047Z,6.78
2023-02-16T16:13:07.548Z,4.40
2023-02-16T16:15:40.943Z,6.07
2023-02-16T16:18:37.827Z,8.40
2023-02-16T16:21:14.168Z,9.25
2023-02-16T16:23:42.901Z,12.30
2023-02-16T16:26:20.524Z,6.72
2023-02-16T16:28:48.256Z,7.40
2023-02-16T16:31:21.713Z,7.53
2023-02-16T16:33:58.749Z,6.28
2023-02-16T16:36:37.046Z,4.72
2023-02-16T16:39:19.463Z,5.57
2023-02-16T16:42:04.367Z,4.93
2023-02-16T16:44:52.839Z,4.90
2023-02-16T16:47:22.869Z,7.30
2023-02-16T16:49:55.943Z,8.88
2023-02-16T16:52:47.835Z,6.47
2023-02-16T16:55:25.158Z,10.18
2023-02-16T16:58:00.614Z,9.90
2023-02-16T17:00:38.526Z,7.10
2023-02-16T17:03:08.441Z,4.30
2023-02-16T17:05:38.594Z,6.43
2023-02-16T17:08:06.154Z,5.35
2023-02-16T17:10:35.376Z,6.88
2023-02-16T17:13:03.463Z,6.60
2023-02-16T17:15:44.680Z,7.75
2023-02-16T17:18:17.551Z,10.10
2023-02-16T17:20:45.800Z,7.75
2023-02-16T17:23:14.535Z,7.95
2023-02-16T17:25:42.494Z,6.78
2023-02-16T17:28:11.850Z,14.45
2023-02-16T17:30:39.619Z,7.55
2023-02-16T17:33:07.644Z,6.45
2023-02-16T17:35:38.118Z,9.80
2023-02-16T17:38:20.776Z,6.32
2023-02-16T17:40:49.758Z,4.88
2023-02-16T17:43:18.880Z,7.78
2023-02-16T17:45:47.612Z,8.13
2023-02-16T17:48:28.946Z,7.45
2023-02-16T17:51:00.569Z,7.35
2023-02-16T17:53:29.550Z,6.82
2023-02-16T17:55:58.115Z,6.80
2023-02-16T17:58:26.038Z,6.43
2023-02-16T18:00:54.518Z,9.90
2023-02-16T18:03:23.516Z,8.02
2023-02-16T18:05:51.706Z,12.57
2023-02-16T18:08:20.271Z,11.43
2023-02-16T18:10:51.344Z,13.23
2023-02-16T18:13:19.718Z,10.35
2023-02-16T18:15:49.155Z,7.70
2023-02-16T18:18:18.626Z,7.53
2023-02-16T18:20:47.535Z,9.52
2023-02-16T18:23:16.073Z,11.07
2023-02-16T18:25:44.704Z,8.13
2023-02-16T18:28:21.288Z,9.50
2023-02-16T18:30:51.191Z,10.68
2023-02-16T18:33:22.928Z,15.05
2023-02-16T18:35:56.531Z,8.95
2023-02-16T18:38:25.012Z,9.50
2023-02-16T18:40:54.385Z,9.23
2023-02-16T18:43:23.217Z,8.43
2023-02-16T18:45:51.858Z,7.25
2023-02-16T18:48:19.767Z,11.10
2023-02-16T18:50:47.636Z,6.32
2023-02-16T18:53:15.561Z,10.02
2023-02-16T18:55:46.500Z,7.50
2023-02-16T18:58:15.579Z,7.85
2023-02-16T19:00:43.392Z,8.50
2023-02-16T19:03:12.555Z,10.40
2023-02-16T19:05:40.394Z,10.55
2023-02-16T19:08:08.358Z,9.18
2023-02-16T19:10:36.044Z,13.57
2023-02-16T19:13:05.712Z,10.27
2023-02-16T19:15:34.521Z,10.82
2023-02-16T19:18:01.869Z,9.35
2023-02-16T19:20:30.018Z,11.48
2023-02-16T19:22:57.878Z,12.15
2023-02-16T19:25:25.164Z,10.15
2023-02-16T19:27:52.879Z,11.63
2023-02-16T19:30:22.107Z,9.95
2023-02-16T19:32:49.699Z,7.68
2023-02-16T19:35:17.561Z,7.68
2023-02-16T19:37:45.290Z,8.68
2023-02-16T19:40:13.389Z,6.85
2023-02-16T19:42:41.111Z,9.63
2023-02-16T19:45:08.982Z,12.27
2023-02-16T19:47:36.530Z,5.45
2023-02-16T19:50:04.393Z,4.82
2023-02-16T19:52:32.474Z,7.70
2023-02-16T19:54:59.740Z,7.53
2023-02-16T19:57:27.007Z,6.65
2023-02-16T19:59:54.695Z,9.00
2023-02-16T20:02:25.080Z,13.57
2023-02-16T20:04:54.765Z,5.45
2023-02-16T20:07:29.174Z,11.02
2023-02-16T20:09:58.798Z,9.20
2023-02-16T20:12:29.885Z,11.95
2023-02-16T20:15:01.952Z,10.15
2023-02-16T20:17:29.649Z,12.45
2023-02-16T20:19:57.484Z,8.65
2023-02-16T20:22:25.074Z,6.75
2023-02-16T20:24:52.363Z,8.23
2023-02-16T20:27:19.735Z,8.43
2023-02-16T20:29:47.913Z,7.57
2023-02-16T20:32:15.770Z,10.30
2023-02-16T20:34:43.325Z,8.85
2023-02-16T20:37:11.086Z,7.30
2023-02-16T20:39:38.731Z,10.10
2023-02-16T20:42:05.914Z,6.72
2023-02-16T20:44:34.263Z,9.13
2023-02-16T20:47:02.176Z,11.00
2023-02-16T20:49:30.028Z,10.07
2023-02-16T20:51:57.606Z,6.38
2023-02-16T20:54:24.783Z,7.68
2023-02-16T20:56:52.304Z,9.23
2023-02-16T20:59:19.522Z,9.82
2023-02-16T21:01:47.755Z,8.55
2023-02-16T21:04:18.101Z,9.70
2023-02-16T21:06:45.954Z,8.57
2023-02-16T21:09:14.244Z,8.70
2023-02-16T21:11:43.247Z,7.40
2023-02-16T21:14:12.440Z,12.63
2023-02-16T21:16:41.266Z,11.25
2023-02-16T21:19:20.941Z,8.50
2023-02-16T21:21:49.611Z,10.25
2023-02-16T21:24:16.641Z,11.25
2023-02-16T21:26:44.176Z,8.52
2023-02-16T21:29:11.837Z,9.05
2023-02-16T21:31:39.441Z,7.60
2023-02-16T21:34:06.868Z,10.02
2023-02-16T21:36:34.281Z,6.97
2023-02-16T21:39:02.972Z,8.23
2023-02-16T21:41:34.229Z,8.38
2023-02-16T21:44:04.630Z,7.93
2023-02-16T21:46:33.801Z,7.88
2023-02-16T21:49:01.676Z,8.75
2023-02-16T21:51:33.550Z,8.15
2023-02-16T21:54:02.726Z,9.30
2023-02-16T21:56:36.982Z,9.27
2023-02-16T21:59:06.874Z,8.50
2023-02-16T22:01:46.073Z,10.45
2023-02-16T22:04:16.421Z,8.00
2023-02-16T22:06:47.006Z,8.25
2023-02-16T22:09:24.834Z,9.82
2023-02-16T22:11:52.552Z,6.50
2023-02-16T22:14:20.135Z,10.77
2023-02-16T22:16:48.730Z,8.32
2023-02-16T22:19:18.567Z,8.20
2023-02-16T22:21:47.939Z,6.78
2023-02-16T22:24:17.262Z,9.35
2023-02-16T22:26:46.252Z,9.50
2023-02-16T22:29:13.295Z,7.97
2023-02-16T22:31:45.297Z,8.38
2023-02-16T22:34:14.988Z,8.35
2023-02-16T22:36:42.188Z,8.63
2023-02-16T22:39:13.235Z,11.35
2023-02-16T22:41:40.603Z,9.98
2023-02-16T22:44:07.938Z,9.45
2023-02-16T22:46:36.077Z,8.77
2023-02-16T22:49:03.640Z,8.45
2023-02-16T22:51:31.974Z,8.73
2023-02-16T22:54:00.915Z,8.88
2023-02-16T22:56:28.505Z,9.93
2023-02-16T22:58:57.675Z,7.45
2023-02-16T23:01:27.037Z,12.68
2023-02-16T23:04:00.361Z,8.20
2023-02-16T23:06:36.112Z,13.48
2023-02-16T23:09:15.969Z,11.18
2023-02-16T23:11:43.990Z,5.53
2023-02-16T23:14:16.726Z,8.07
2023-02-16T23:16:51.077Z,10.45
2023-02-16T23:19:24.733Z,8.68
2023-02-16T23:21:52.538Z,6.43
2023-02-16T23:24:23.216Z,9.32
2023-02-16T23:26:54.594Z,12.63
2023-02-16T23:29:21.825Z,6.72
2023-02-16T23:31:49.303Z,13.57
2023-02-16T23:34:17.789Z,7.75
2023-02-16T23:36:45.678Z,9.00
2023-02-16T23:39:15.506Z,9.30
2023-02-16T23:41:43.170Z,6.97
2023-02-16T23:44:12.928Z,13.98
2023-02-16T23:46:40.442Z,9.25
2023-02-16T23:49:08.210Z,6.82
2023-02-16T23:51:35.309Z,9.05
2023-02-16T23:54:02.711Z,7.57
2023-02-16T23:56:30.069Z,8.85
2023-02-16T23:59:00.252Z,12.18
